^^
Saratoga-Weather Station Historical Data
Daily Summary for January 23, 2021 Units:  English    Metric   Both
Daily Weekly Monthly Yearly Custom
  High: Low: Average:
Temperature: 42.3 °F 35.1 °F 38.8 °F
Dew Point: 38.3 °F 33.8 °F 36.5 °F
Humidity: 96% 82% 92%
Wind Speed: 7mph 0mph 1.6mph
Wind Gust: 10mph - -
Wind- - South
Pressure: 29.5 in 29.3 in -
Precipitation: 0.23 in    
Historical Graphs
 
 
Tabular Data for January 23, 2021
Time Temperature Dew Point Pressure Wind Wind Speed Wind Gust Humidity Rainfall Rate (Hourly) solar
00:03 38.1 °F 35.4 °F 29.5 in West 6.9 mph 7 mph 90% 0 in 0 W/m2
00:08 38.1 °F 35.4 °F 29.5 in WSW 2.9 mph 7 mph 90% 0 in 0 W/m2
00:13 37.9 °F 35.2 °F 29.5 in WNW 2.9 mph 8 mph 90% 0 in 0 W/m2
00:18 37.9 °F 35.2 °F 29.5 in West 2.9 mph 7 mph 90% 0 in 0 W/m2
00:23 37.8 °F 35.1 °F 29.5 in West 4 mph 8 mph 90% 0 in 0 W/m2
00:28 37.8 °F 35.4 °F 29.5 in West 0.9 mph 3 mph 91% 0 in 0 W/m2
00:33 37.6 °F 35.2 °F 29.5 in West 0.9 mph 4 mph 91% 0 in 0 W/m2
00:38 37.6 °F 35.2 °F 29.5 in NW 4 mph 4 mph 91% 0 in 0 W/m2
00:43 37.4 °F 35.1 °F 29.5 in WSW 2 mph 4 mph 91% 0 in 0 W/m2
00:48 37.4 °F 35.1 °F 29.5 in Calm   3 mph 91% 0 in 0 W/m2
00:53 37.2 °F 34.9 °F 29.5 in WSW 2.9 mph 4 mph 91% 0 in 0 W/m2
00:58 37.2 °F 35.1 °F 29.5 in WNW 2 mph 4 mph 92% 0 in 0 W/m2
01:03 37.2 °F 35.1 °F 29.5 in West 2 mph 3 mph 92% 0 in 0 W/m2
01:08 37.2 °F 35.1 °F 29.5 in NNW 0.9 mph 4 mph 92% 0 in 0 W/m2
01:13 37.2 °F 35.1 °F 29.5 in WSW 0.9 mph 2 mph 92% 0 in 0 W/m2
01:18 37.2 °F 35.1 °F 29.5 in West 0.9 mph 3 mph 92% 0 in 0 W/m2
01:23 37.2 °F 35.1 °F 29.5 in West 4 mph 4 mph 92% 0 in 0 W/m2
01:28 37.2 °F 35.4 °F 29.5 in West 6 mph 6 mph 93% 0 in 0 W/m2
01:33 37.2 °F 35.4 °F 29.5 in West 2 mph 3 mph 93% 0 in 0 W/m2
01:38 37 °F 35.2 °F 29.5 in WNW 6 mph 6 mph 93% 0 in 0 W/m2
01:43 37 °F 35.2 °F 29.5 in West 4 mph 4 mph 93% 0 in 0 W/m2
01:48 37 °F 35.2 °F 29.5 in South 0.9 mph 4 mph 93% 0 in 0 W/m2
01:53 37 °F 35.2 °F 29.5 in Calm   1 mph 93% 0 in 0 W/m2
01:58 37.2 °F 35.4 °F 29.5 in East 0.9 mph 4 mph 93% 0 in 0 W/m2
02:03 37.2 °F 35.6 °F 29.5 in Calm   4 mph 94% 0 in 0 W/m2
02:08 37.6 °F 36 °F 29.5 in South 0.9 mph 3 mph 94% 0 in 0 W/m2
02:13 37.6 °F 36 °F 29.5 in ESE 0.9 mph 3 mph 94% 0 in 0 W/m2
02:18 37.8 °F 36.1 °F 29.5 in SE 0.9 mph 3 mph 94% 0 in 0 W/m2
02:23 37.8 °F 36.1 °F 29.5 in Calm   2 mph 94% 0 in 0 W/m2
02:28 37.8 °F 36.1 °F 29.5 in East 2.9 mph 4 mph 94% 0 in 0 W/m2
02:33 37.9 °F 36.3 °F 29.5 in Calm   2 mph 94% 0 in 0 W/m2
02:38 37.9 °F 36.3 °F 29.5 in East 2 mph 2 mph 94% 0 in 0 W/m2
02:43 37.9 °F 36.3 °F 29.5 in Calm   1 mph 94% 0 in 0 W/m2
02:48 37.9 °F 36.3 °F 29.5 in Calm   1 mph 94% 0 in 0 W/m2
02:53 38.1 °F 36.5 °F 29.5 in North 0.9 mph 4 mph 94% 0 in 0 W/m2
02:58 38.3 °F 36.7 °F 29.5 in NW 0.9 mph 2 mph 94% 0 in 0 W/m2
03:03 38.5 °F 36.9 °F 29.5 in Calm   4 mph 94% 0 in 0 W/m2
03:08 38.5 °F 36.9 °F 29.5 in Calm   2 mph 94% 0 in 0 W/m2
03:13 38.5 °F 36.9 °F 29.5 in Calm     94% 0 in 0 W/m2
03:18 38.5 °F 36.9 °F 29.5 in Calm   1 mph 94% 0 in 0 W/m2
03:23 38.7 °F 37 °F 29.5 in Calm   3 mph 94% 0 in 0 W/m2
03:28 38.7 °F 37 °F 29.5 in Calm   2 mph 94% 0 in 0 W/m2
03:33 38.7 °F 37 °F 29.5 in Calm   1 mph 94% 0 in 0 W/m2
03:38 38.7 °F 37 °F 29.5 in NW 2 mph 3 mph 94% 0 in 0 W/m2
03:43 38.7 °F 37 °F 29.5 in ENE 2 mph 2 mph 94% 0 in 0 W/m2
03:49 38.8 °F 37.2 °F 29.5 in East 0.9 mph 3 mph 94% 0 in 0 W/m2
03:54 38.8 °F 37 °F 29.5 in Calm   1 mph 93% 0 in 0 W/m2
03:59 38.8 °F 37.2 °F 29.5 in NNW 0.9 mph 3 mph 94% 0 in 0 W/m2
04:04 38.8 °F 37 °F 29.5 in Calm   1 mph 93% 0 in 0 W/m2
04:09 38.8 °F 37 °F 29.5 in Calm   1 mph 93% 0 in 0 W/m2
04:14 39 °F 37.2 °F 29.5 in NNW 0.9 mph 4 mph 93% 0 in 0 W/m2
04:19 39 °F 37.2 °F 29.5 in East 2 mph 5 mph 93% 0 in 0 W/m2
04:24 39 °F 37.2 °F 29.5 in Calm   1 mph 93% 0 in 0 W/m2
04:29 39 °F 37.2 °F 29.5 in East 0.9 mph 2 mph 93% 0 in 0 W/m2
04:34 39.2 °F 37.4 °F 29.5 in East 2 mph 3 mph 93% 0 in 0 W/m2
04:39 39.2 °F 37.4 °F 29.5 in Calm   2 mph 93% 0 in 0 W/m2
04:44 39.2 °F 37.4 °F 29.5 in NE 0.9 mph 1 mph 93% 0 in 0 W/m2
04:49 39.4 °F 37.6 °F 29.5 in NNW 0.9 mph 3 mph 93% 0 in 0 W/m2
04:54 39.4 °F 37.6 °F 29.5 in Calm   2 mph 93% 0 in 0 W/m2
04:59 39.4 °F 37.6 °F 29.5 in NE 0.9 mph 2 mph 93% 0 in 0 W/m2
05:04 39.4 °F 37.6 °F 29.5 in NE 0.9 mph 1 mph 93% 0 in 0 W/m2
05:09 39.4 °F 37.6 °F 29.5 in Calm   2 mph 93% 0 in 0 W/m2
05:14 39.4 °F 37.6 °F 29.5 in Calm   4 mph 93% 0 in 0 W/m2
05:19 39.4 °F 37.6 °F 29.5 in North 2 mph 2 mph 93% 0 in 0 W/m2
05:24 39.6 °F 37.8 °F 29.5 in West 0.9 mph 4 mph 93% 0 in 0 W/m2
05:29 39.6 °F 37.8 °F 29.5 in Calm   3 mph 93% 0 in 0 W/m2
05:34 39.6 °F 37.8 °F 29.5 in North 2.9 mph 4 mph 93% 0 in 0 W/m2
05:39 39.6 °F 37.8 °F 29.5 in NNE 2 mph 5 mph 93% 0 in 0 W/m2
05:44 39.7 °F 37.9 °F 29.5 in WNW 2 mph 2 mph 93% 0 in 0 W/m2
05:49 39.7 °F 37.9 °F 29.5 in NW 2.9 mph 7 mph 93% 0 in 0 W/m2
05:54 39.7 °F 37.9 °F 29.5 in East 2.9 mph 5 mph 93% 0 in 0 W/m2
05:59 39.7 °F 37.9 °F 29.5 in North 4.9 mph 7 mph 93% 0 in 0 W/m2
06:04 39.9 °F 38.1 °F 29.5 in NNW 2 mph 5 mph 93% 0 in 0 W/m2
06:09 39.9 °F 38.1 °F 29.5 in North 2 mph 4 mph 93% 0 in 0 W/m2
06:14 39.9 °F 38.1 °F 29.5 in West 0.9 mph 2 mph 93% 0 in 0 W/m2
06:19 39.9 °F 38.1 °F 29.5 in NNE 2.9 mph 4 mph 93% 0 in 0 W/m2
06:24 39.9 °F 38.1 °F 29.5 in NW 2.9 mph 3 mph 93% 0 in 0 W/m2
06:29 39.9 °F 37.8 °F 29.5 in WNW 2 mph 3 mph 92% 0 in 0 W/m2
06:34 39.9 °F 37.8 °F 29.5 in NNE 2 mph 4 mph 92% 0 in 0 W/m2
06:39 39.9 °F 37.8 °F 29.5 in West 6.9 mph 7 mph 92% 0 in 0 W/m2
06:44 39.9 °F 37.8 °F 29.5 in WNW 2 mph 4 mph 92% 0 in 0 W/m2
06:49 39.9 °F 37.8 °F 29.5 in NNE 7 mph 7 mph 92% 0 in 0 W/m2
06:54 39.9 °F 37.8 °F 29.5 in SSE 0.9 mph 4 mph 92% 0 in 0 W/m2
06:59 39.9 °F 37.8 °F 29.5 in WNW 0.9 mph 3 mph 92% 0 in 0 W/m2
07:04 39.9 °F 37.8 °F 29.5 in WNW 4 mph 5 mph 92% 0 in 0 W/m2
07:09 39.9 °F 37.8 °F 29.5 in NW 2.9 mph 3 mph 92% 0 in 0 W/m2
07:14 39.9 °F 37.8 °F 29.5 in NW 4 mph 4 mph 92% 0 in 0 W/m2
07:19 39.9 °F 37.8 °F 29.5 in Calm     92% 0 in 0 W/m2
07:24 39.9 °F 37.8 °F 29.5 in SSW 6.9 mph 7 mph 92% 0 in 0 W/m2
07:29 39.9 °F 37.8 °F 29.5 in NW 0.9 mph 3 mph 92% 0 in 0 W/m2
07:34 39.9 °F 37.8 °F 29.5 in WSW 2 mph 7 mph 92% 0 in 0 W/m2
07:39 39.9 °F 37.8 °F 29.5 in WNW 2 mph 4 mph 92% 0 in 0 W/m2
07:44 39.9 °F 37.8 °F 29.5 in North 0.9 mph 2 mph 92% 0 in 0 W/m2
07:49 39.7 °F 37.6 °F 29.5 in North 2.9 mph 3 mph 92% 0 in 0 W/m2
07:54 39.7 °F 37.6 °F 29.5 in SE 2 mph 4 mph 92% 0 in 0 W/m2
07:59 39.7 °F 37.6 °F 29.5 in West 0.9 mph 3 mph 92% 0 in 0 W/m2
08:04 39.7 °F 37.6 °F 29.5 in NW 0.9 mph 3 mph 92% 0 in 0 W/m2
08:09 39.7 °F 37.6 °F 29.5 in SW 2 mph 5 mph 92% 0 in 0 W/m2
08:14 39.7 °F 37.6 °F 29.5 in NW 2.9 mph 8 mph 92% 0 in 0 W/m2
08:19 39.7 °F 37.6 °F 29.5 in NW 2.9 mph 4 mph 92% 0 in 0 W/m2
08:24 39.7 °F 37.6 °F 29.5 in Calm   1 mph 92% 0 in 0 W/m2
08:29 39.7 °F 37.6 °F 29.5 in NNE 0.9 mph 2 mph 92% 0 in 0 W/m2
08:34 39.6 °F 37.4 °F 29.5 in WSW 2 mph 2 mph 92% 0 in 0 W/m2
08:39 39.6 °F 37.4 °F 29.5 in Calm   3 mph 92% 0 in 0 W/m2
08:44 39.6 °F 37.4 °F 29.5 in West 2.9 mph 4 mph 92% 0 in 0 W/m2
08:49 39.6 °F 37.4 °F 29.5 in WNW 0.9 mph 6 mph 92% 0 in 0 W/m2
08:54 39.6 °F 37.4 °F 29.5 in NW 2.9 mph 3 mph 92% 0 in 0 W/m2
08:59 39.6 °F 37.8 °F 29.5 in NNW 2.9 mph 6 mph 93% 0 in 0 W/m2
09:04 39.4 °F 37.6 °F 29.5 in NW 0.9 mph 5 mph 93% 0 in 0 W/m2
09:09 39.4 °F 37.6 °F 29.5 in NW 2 mph 6 mph 93% 0 in 0 W/m2
09:14 39.4 °F 37.6 °F 29.5 in NW 2 mph 2 mph 93% 0 in 5 W/m2
09:19 39.4 °F 37.6 °F 29.5 in Calm   4 mph 93% 0 in 5 W/m2
09:24 39.4 °F 37.2 °F 29.5 in NNW 2 mph 2 mph 92% 0 in 7 W/m2
09:29 39.4 °F 37.2 °F 29.5 in ENE 0.9 mph 4 mph 92% 0 in 9 W/m2
09:34 39.4 °F 37.2 °F 29.5 in NNW 2 mph 4 mph 92% 0 in 16 W/m2
09:39 39.4 °F 37.2 °F 29.5 in NW 2.9 mph 3 mph 92% 0 in 19 W/m2
09:44 39.4 °F 37.2 °F 29.5 in NNW 0.9 mph 4 mph 92% 0 in 21 W/m2
09:49 39.6 °F 37.4 °F 29.5 in Calm   2 mph 92% 0 in 35 W/m2
09:54 39.6 °F 37.4 °F 29.5 in NNW 0.9 mph 3 mph 92% 0 in 51 W/m2
09:59 39.6 °F 37.4 °F 29.5 in Calm   3 mph 92% 0 in 54 W/m2
10:07 39.7 °F 37.4 °F 29.4 in NW 0.9 mph 2 mph 91% 0 in 74 W/m2
10:12 39.7 °F 37.4 °F 29.4 in ESE 2.9 mph 4 mph 91% 0 in 84 W/m2
10:17 39.9 °F 37.6 °F 29.4 in SE 2.9 mph 3 mph 91% 0 in 69 W/m2
10:22 39.9 °F 37.6 °F 29.4 in East 2 mph 4 mph 91% 0 in 91 W/m2
10:27 40.1 °F 37.8 °F 29.4 in Calm   1 mph 91% 0 in 77 W/m2
10:32 40.3 °F 37.9 °F 29.4 in NNE 2 mph 4 mph 91% 0 in 83 W/m2
10:37 40.5 °F 37.8 °F 29.4 in ENE 2 mph 5 mph 90% 0 in 104 W/m2
10:42 40.5 °F 37.8 °F 29.4 in NNE 0.9 mph 2 mph 90% 0 in 90 W/m2
10:47 40.6 °F 37.6 °F 29.4 in WSW 0.9 mph 4 mph 89% 0 in 120 W/m2
10:52 40.6 °F 37.6 °F 29.4 in Calm   1 mph 89% 0 in 156 W/m2
10:57 41 °F 37.9 °F 29.4 in Calm   5 mph 89% 0 in 179 W/m2
11:02 41.4 °F 38.3 °F 29.4 in SE 2 mph 5 mph 89% 0 in 169 W/m2
11:07 41.5 °F 38.3 °F 29.4 in Calm   2 mph 88% 0 in 120 W/m2
11:12 41.5 °F 38.3 °F 29.4 in Calm   2 mph 88% 0 in 114 W/m2
11:17 41.7 °F 38.1 °F 29.4 in North 0.9 mph 3 mph 87% 0 in 169 W/m2
11:22 41.7 °F 37.8 °F 29.4 in West 0.9 mph 3 mph 86% 0 in 148 W/m2
11:27 41.9 °F 37.9 °F 29.4 in ENE 0.9 mph 2 mph 86% 0 in 181 W/m2
11:32 42.1 °F 37.9 °F 29.4 in Calm   6 mph 85% 0 in 158 W/m2
11:37 42.3 °F 38.1 °F 29.4 in Calm   3 mph 85% 0 in 130 W/m2
11:42 42.3 °F 37.8 °F 29.4 in East 2 mph 7 mph 84% 0 in 113 W/m2
11:47 42.3 °F 37.8 °F 29.4 in North 0.9 mph 3 mph 84% 0 in 132 W/m2
11:52 42.3 °F 37.8 °F 29.4 in East 2 mph 6 mph 84% 0 in 137 W/m2
11:57 42.3 °F 37.4 °F 29.4 in East 2.9 mph 4 mph 83% 0 in 132 W/m2
12:02 42.3 °F 37.2 °F 29.4 in East 2 mph 2 mph 82% 0 in 123 W/m2
12:07 42.3 °F 37.4 °F 29.4 in SSE 0.9 mph 5 mph 83% 0 in 128 W/m2
12:13 42.3 °F 37.4 °F 29.4 in ESE 2 mph 6 mph 83% 0 in 111 W/m2
12:18 42.3 °F 37.4 °F 29.4 in East 0.9 mph 3 mph 83% 0 in 130 W/m2
12:23 42.3 °F 37.8 °F 29.4 in ESE 2.9 mph 7 mph 84% 0 in 151 W/m2
12:28 42.3 °F 37.8 °F 29.4 in ESE 6 mph 6 mph 84% 0 in 134 W/m2
12:33 42.1 °F 37.6 °F 29.4 in ESE 6 mph 7 mph 84% 0 in 120 W/m2
12:38 42.3 °F 37.8 °F 29.4 in Calm   6 mph 84% 0 in 104 W/m2
12:43 42.3 °F 37.8 °F 29.4 in SE 0.9 mph 4 mph 84% 0 in 79 W/m2
12:48 42.1 °F 37.6 °F 29.4 in Calm   4 mph 84% 0 in 49 W/m2
12:53 42.1 °F 37.6 °F 29.4 in ENE 2 mph 3 mph 84% 0 in 113 W/m2
12:58 42.1 °F 37.6 °F 29.4 in East 2.9 mph 4 mph 84% 0 in 139 W/m2
13:03 42.3 °F 37.8 °F 29.4 in East 0.9 mph 4 mph 84% 0 in 123 W/m2
13:08 42.3 °F 37.4 °F 29.4 in ESE 2.9 mph 8 mph 83% 0 in 98 W/m2
13:13 42.3 °F 37.4 °F 29.4 in East 4 mph 4 mph 83% 0 in 88 W/m2
13:18 42.3 °F 37.4 °F 29.4 in ENE 0.9 mph 8 mph 83% 0 in 83 W/m2
13:23 42.3 °F 37.4 °F 29.4 in ENE 2.9 mph 6 mph 83% 0 in 102 W/m2
13:28 42.1 °F 37.2 °F 29.4 in NE 2.9 mph 9 mph 83% 0 in 95 W/m2
13:33 42.1 °F 37.6 °F 29.4 in East 2 mph 6 mph 84% 0 in 72 W/m2
13:38 41.9 °F 37 °F 29.4 in ESE 2.9 mph 9 mph 83% 0 in 46 W/m2
13:43 41.5 °F 37 °F 29.3 in East 6.9 mph 10 mph 84% 0 in 65 W/m2
13:48 41.4 °F 36.9 °F 29.3 in East 6 mph 8 mph 84% 0 in 56 W/m2
13:53 41.4 °F 37.2 °F 29.3 in ESE 6 mph 6 mph 85% 0 in 67 W/m2
13:58 41.4 °F 37.2 °F 29.3 in ESE 2.9 mph 7 mph 85% 0 in 95 W/m2
14:03 41.4 °F 37.2 °F 29.3 in ENE 0.9 mph 8 mph 85% 0 in 70 W/m2
14:08 41.2 °F 37 °F 29.3 in ESE 2 mph 10 mph 85% 0 in 53 W/m2
14:13 41.2 °F 37 °F 29.3 in East 4 mph 8 mph 85% 0 in 47 W/m2
14:18 41.2 °F 37 °F 29.3 in East 4 mph 7 mph 85% 0 in 42 W/m2
14:23 41.2 °F 37.4 °F 29.3 in East 2 mph 7 mph 86% 0 in 39 W/m2
14:28 41 °F 37.2 °F 29.3 in East 6.9 mph 7 mph 86% 0 in 33 W/m2
14:33 40.8 °F 37.2 °F 29.3 in SSE 0.9 mph 4 mph 87% 0 in 32 W/m2
14:38 40.6 °F 37 °F 29.3 in East 2 mph 6 mph 87% 0 in 37 W/m2
14:43 40.5 °F 37.2 °F 29.3 in East 2 mph 4 mph 88% 0 in 28 W/m2
14:48 40.3 °F 37.2 °F 29.3 in East 2.9 mph 4 mph 89% 0 in 25 W/m2
14:53 40.3 °F 37.2 °F 29.3 in East 2 mph 4 mph 89% 0 in 32 W/m2
14:58 40.3 °F 37.6 °F 29.3 in SE 2 mph 7 mph 90% 0 in 42 W/m2
15:03 40.1 °F 37.4 °F 29.3 in ESE 0.9 mph 4 mph 90% 0 in 28 W/m2
15:08 39.9 °F 37.6 °F 29.3 in ESE 2 mph 7 mph 91% 0.01 in 32 W/m2
15:13 39.7 °F 37 °F 29.3 in ESE 0.9 mph 7 mph 90% 0.01 in 23 W/m2
15:18 39.4 °F 36.7 °F 29.3 in ESE 2 mph 8 mph 90% 0.02 in 21 W/m2
15:23 39.2 °F 36.9 °F 29.3 in ESE 4 mph 4 mph 91% 0.02 in 23 W/m2
15:28 38.8 °F 36.5 °F 29.3 in ESE 0.9 mph 8 mph 91% 0.02 in 19 W/m2
15:33 38.7 °F 36.3 °F 29.3 in ESE 2.9 mph 7 mph 91% 0.03 in 25 W/m2
15:38 38.3 °F 36.1 °F 29.3 in ESE 2.9 mph 9 mph 92% 0.03 in 23 W/m2
15:43 38.1 °F 36 °F 29.3 in East 0.9 mph 8 mph 92% 0.04 in 23 W/m2
15:48 37.9 °F 36.1 °F 29.3 in ESE 2 mph 9 mph 93% 0.05 in 21 W/m2
15:53 37.8 °F 36 °F 29.3 in East 0.9 mph 7 mph 93% 0.05 in 18 W/m2
15:58 37.8 °F 36 °F 29.3 in Calm   6 mph 93% 0.06 in 12 W/m2
16:03 37.8 °F 36 °F 29.3 in SE 2.9 mph 3 mph 93% 0.06 in 11 W/m2
16:08 37.8 °F 36.1 °F 29.3 in ENE 4 mph 7 mph 94% 0.05 in 11 W/m2
16:13 37.6 °F 36 °F 29.3 in East 2.9 mph 5 mph 94% 0.05 in 14 W/m2
16:18 37.6 °F 36 °F 29.3 in East 2 mph 4 mph 94% 0.04 in 12 W/m2
16:23 37.6 °F 36 °F 29.3 in ESE 2.9 mph 7 mph 94% 0.03 in 14 W/m2
16:28 37.4 °F 35.8 °F 29.3 in ESE 2.9 mph 8 mph 94% 0.03 in 12 W/m2
16:33 37.2 °F 35.6 °F 29.3 in ESE 2 mph 6 mph 94% 0.03 in 12 W/m2
16:38 37 °F 35.4 °F 29.3 in NNE 2.9 mph 6 mph 94% 0.03 in 14 W/m2
16:43 37 °F 35.4 °F 29.3 in ENE 2.9 mph 8 mph 94% 0.02 in 18 W/m2
16:48 37 °F 35.4 °F 29.3 in SSE 6 mph 7 mph 94% 0.02 in 23 W/m2
16:53 36.9 °F 35.2 °F 29.3 in East 0.9 mph 6 mph 94% 0.02 in 12 W/m2
16:58 36.9 °F 35.2 °F 29.3 in East 2 mph 4 mph 94% 0.01 in 7 W/m2
17:03 36.9 °F 35.6 °F 29.3 in East 4 mph 7 mph 95% 0.01 in 0 W/m2
17:08 36.7 °F 35.4 °F 29.3 in ESE 0.9 mph 7 mph 95% 0.02 in 0 W/m2
17:13 36.7 °F 35.4 °F 29.3 in SE 2.9 mph 7 mph 95% 0.02 in 0 W/m2
17:18 36.7 °F 35.4 °F 29.3 in Calm   4 mph 95% 0.02 in 0 W/m2
17:23 36.7 °F 35.4 °F 29.3 in East 7 mph 7 mph 95% 0.02 in 0 W/m2
17:28 36.3 °F 35.1 °F 29.3 in ESE 2 mph 7 mph 95% 0.02 in 0 W/m2
17:33 36.3 °F 35.1 °F 29.3 in Calm   3 mph 95% 0.01 in 0 W/m2
17:38 36.3 °F 35.1 °F 29.3 in ESE 0.9 mph 7 mph 95% 0.02 in 0 W/m2
17:43 36.3 °F 35.1 °F 29.3 in ENE 0.9 mph 1 mph 95% 0.02 in 0 W/m2
17:48 36.3 °F 35.1 °F 29.3 in Calm   1 mph 95% 0.02 in 0 W/m2
17:53 36.3 °F 35.1 °F 29.3 in Calm     95% 0.02 in 0 W/m2
17:58 36.5 °F 35.2 °F 29.3 in Calm     95% 0.02 in 0 W/m2
18:03 36.5 °F 35.2 °F 29.3 in Calm     95% 0.02 in 0 W/m2
18:08 36.5 °F 35.2 °F 29.3 in ENE 0.9 mph 2 mph 95% 0.01 in 0 W/m2
18:13 36.5 °F 35.2 °F 29.3 in Calm   2 mph 95% 0.02 in 0 W/m2
18:18 36.5 °F 35.2 °F 29.3 in Calm   1 mph 95% 0.02 in 0 W/m2
18:23 36.3 °F 35.1 °F 29.3 in Calm   2 mph 95% 0.04 in 0 W/m2
18:28 36.1 °F 34.9 °F 29.3 in ESE 0.9 mph 2 mph 95% 0.05 in 0 W/m2
18:33 36.1 °F 34.9 °F 29.3 in Calm   2 mph 95% 0.06 in 0 W/m2
18:38 36.1 °F 34.9 °F 29.3 in Calm   1 mph 95% 0.06 in 0 W/m2
18:43 36 °F 34.7 °F 29.3 in Calm   2 mph 95% 0.06 in 0 W/m2
18:48 36 °F 34.7 °F 29.3 in ENE 0.9 mph 1 mph 95% 0.06 in 0 W/m2
18:53 36 °F 34.7 °F 29.3 in Calm   2 mph 95% 0.06 in 0 W/m2
18:58 36 °F 34.7 °F 29.3 in Calm   1 mph 95% 0.07 in 0 W/m2
19:03 36 °F 34.7 °F 29.3 in Calm     95% 0.07 in 0 W/m2
19:08 35.8 °F 34.5 °F 29.3 in Calm   1 mph 95% 0.07 in 0 W/m2
19:13 36 °F 34.7 °F 29.3 in Calm     95% 0.06 in 0 W/m2
19:18 35.8 °F 34.5 °F 29.3 in Calm     95% 0.06 in 0 W/m2
19:23 36 °F 34.7 °F 29.3 in ENE 1 mph 1 mph 95% 0.04 in 0 W/m2
19:28 35.8 °F 34.5 °F 29.3 in Calm   2 mph 95% 0.04 in 0 W/m2
19:34 35.8 °F 34.5 °F 29.3 in WNW 2 mph 2 mph 95% 0.03 in 0 W/m2
19:39 35.8 °F 34.7 °F 29.3 in Calm   1 mph 96% 0.02 in 0 W/m2
19:44 35.8 °F 34.7 °F 29.3 in Calm     96% 0.02 in 0 W/m2
19:49 35.8 °F 34.5 °F 29.3 in Calm     95% 0.02 in 0 W/m2
19:54 35.8 °F 34.5 °F 29.3 in Calm     95% 0.03 in 0 W/m2
19:59 35.8 °F 34.5 °F 29.3 in Calm     95% 0.03 in 0 W/m2
20:04 35.8 °F 34.7 °F 29.3 in Calm   1 mph 96% 0.03 in 0 W/m2
20:09 35.8 °F 34.7 °F 29.3 in Calm     96% 0.03 in 0 W/m2
20:14 35.8 °F 34.7 °F 29.3 in Calm   1 mph 96% 0.04 in 0 W/m2
20:19 35.8 °F 34.7 °F 29.3 in Calm     96% 0.04 in 0 W/m2
20:24 35.8 °F 34.7 °F 29.3 in Calm     96% 0.04 in 0 W/m2
20:29 35.8 °F 34.7 °F 29.3 in Calm     96% 0.04 in 0 W/m2
20:34 35.8 °F 34.7 °F 29.3 in Calm     96% 0.04 in 0 W/m2
20:39 35.8 °F 34.7 °F 29.3 in Calm     96% 0.04 in 0 W/m2
20:44 35.6 °F 34.5 °F 29.3 in Calm     96% 0.04 in 0 W/m2
20:49 35.6 °F 34.5 °F 29.3 in Calm     96% 0.04 in 0 W/m2
20:54 35.4 °F 34.3 °F 29.3 in Calm     96% 0.04 in 0 W/m2
20:59 35.4 °F 34.3 °F 29.3 in Calm     96% 0.03 in 0 W/m2
21:04 35.4 °F 34.3 °F 29.3 in NW 2 mph 4 mph 96% 0.03 in 0 W/m2
21:09 35.2 °F 34 °F 29.3 in WNW 2 mph 4 mph 95% 0.04 in 0 W/m2
21:14 35.1 °F 33.8 °F 29.3 in WSW 0.9 mph 3 mph 95% 0.03 in 0 W/m2
21:19 35.1 °F 33.8 °F 29.3 in West 0.9 mph 3 mph 95% 0.04 in 0 W/m2
Juneau County Weather
Compliments of Weather Underground - 4 mb